Terminal Aerodrome Forecast
Issued by NWS

Home | Current Version | Previous Version | Text Only | Print | Product List | Glossary On
Versions: 1 2 3 4 5 6 7 8 9 10 11 12 13 14 15 16 17 18
000
FTUS46 KSEW 182340
TAFOLM
TAF
KOLM 182340Z 1900/1924 26008KT P6SM OVC040
     FM190600 21006KT P6SM BKN030 OVC070
     FM191000 21003KT 5SM BR OVC007
     FM192100 29007KT P6SM SCT035=

USA.gov is the U.S. government's official web portal to all federal, state and local government web resources and services.